sensor_id;sensor_type;location;lat;lon;timestamp;P1;durP1;ratioP1;P2;durP2;ratioP2
39792;SDS011;26080;42.264;24.536;2022-12-05T00:00:45;4.45;;;3.15;;
39792;SDS011;26080;42.264;24.536;2022-12-05T00:03:11;4.75;;;1.98;;
39792;SDS011;26080;42.264;24.536;2022-12-05T00:05:39;6.80;;;3.25;;
39792;SDS011;26080;42.264;24.536;2022-12-05T00:08:05;8.75;;;3.13;;
39792;SDS011;26080;42.264;24.536;2022-12-05T00:10:30;4.38;;;2.92;;
39792;SDS011;26080;42.264;24.536;2022-12-05T00:12:56;5.72;;;2.53;;
39792;SDS011;26080;42.264;24.536;2022-12-05T00:15:21;4.65;;;3.60;;
39792;SDS011;26080;42.264;24.536;2022-12-05T00:17:47;3.17;;;2.20;;
39792;SDS011;26080;42.264;24.536;2022-12-05T00:20:13;3.47;;;2.70;;
39792;SDS011;26080;42.264;24.536;2022-12-05T00:22:38;2.10;;;1.90;;
39792;SDS011;26080;42.264;24.536;2022-12-05T00:25:06;7.90;;;6.05;;
39792;SDS011;26080;42.264;24.536;2022-12-05T00:27:32;7.72;;;3.75;;
39792;SDS011;26080;42.264;24.536;2022-12-05T00:29:58;3.45;;;2.95;;
39792;SDS011;26080;42.264;24.536;2022-12-05T00:32:23;2.60;;;2.22;;
39792;SDS011;26080;42.264;24.536;2022-12-05T00:34:49;4.70;;;2.63;;
39792;SDS011;26080;42.264;24.536;2022-12-05T00:37:14;7.07;;;3.63;;
39792;SDS011;26080;42.264;24.536;2022-12-05T00:39:40;4.95;;;2.30;;
39792;SDS011;26080;42.264;24.536;2022-12-05T00:42:05;3.45;;;2.38;;
39792;SDS011;26080;42.264;24.536;2022-12-05T00:44:30;3.55;;;2.55;;
39792;SDS011;26080;42.264;24.536;2022-12-05T00:46:56;8.75;;;3.63;;
39792;SDS011;26080;42.264;24.536;2022-12-05T00:49:21;3.22;;;2.08;;
39792;SDS011;26080;42.264;24.536;2022-12-05T00:51:46;6.10;;;2.50;;
39792;SDS011;26080;42.264;24.536;2022-12-05T00:54:13;3.47;;;3.15;;
39792;SDS011;26080;42.264;24.536;2022-12-05T00:56:40;2.85;;;2.42;;
39792;SDS011;26080;42.264;24.536;2022-12-05T00:59:07;3.20;;;2.58;;
39792;SDS011;26080;42.264;24.536;2022-12-05T01:01:35;4.22;;;2.00;;
39792;SDS011;26080;42.264;24.536;2022-12-05T01:04:07;7.43;;;3.20;;
39792;SDS011;26080;42.264;24.536;2022-12-05T01:06:35;6.25;;;3.28;;
39792;SDS011;26080;42.264;24.536;2022-12-05T01:09:02;3.88;;;3.53;;
39792;SDS011;26080;42.264;24.536;2022-12-05T01:11:30;1.95;;;1.63;;
39792;SDS011;26080;42.264;24.536;2022-12-05T01:13:56;5.35;;;2.53;;
39792;SDS011;26080;42.264;24.536;2022-12-05T01:16:25;4.78;;;2.40;;
39792;SDS011;26080;42.264;24.536;2022-12-05T01:18:53;3.08;;;2.42;;
39792;SDS011;26080;42.264;24.536;2022-12-05T01:21:19;5.63;;;2.95;;
39792;SDS011;26080;42.264;24.536;2022-12-05T01:23:45;4.47;;;3.30;;
39792;SDS011;26080;42.264;24.536;2022-12-05T01:26:12;3.45;;;2.10;;
39792;SDS011;26080;42.264;24.536;2022-12-05T01:28:39;1.88;;;1.38;;
39792;SDS011;26080;42.264;24.536;2022-12-05T01:31:07;3.78;;;2.97;;
39792;SDS011;26080;42.264;24.536;2022-12-05T01:33:34;2.78;;;1.73;;
39792;SDS011;26080;42.264;24.536;2022-12-05T01:36:01;6.35;;;2.90;;
39792;SDS011;26080;42.264;24.536;2022-12-05T01:38:27;2.65;;;1.85;;
39792;SDS011;26080;42.264;24.536;2022-12-05T01:41:03;3.30;;;2.30;;
39792;SDS011;26080;42.264;24.536;2022-12-05T01:43:30;6.53;;;3.28;;
39792;SDS011;26080;42.264;24.536;2022-12-05T01:45:56;7.13;;;4.28;;
39792;SDS011;26080;42.264;24.536;2022-12-05T01:48:23;3.60;;;2.00;;
39792;SDS011;26080;42.264;24.536;2022-12-05T01:50:52;2.30;;;2.03;;
39792;SDS011;26080;42.264;24.536;2022-12-05T01:53:17;7.15;;;4.25;;
39792;SDS011;26080;42.264;24.536;2022-12-05T01:55:44;12.75;;;1.90;;
39792;SDS011;26080;42.264;24.536;2022-12-05T01:58:11;2.47;;;1.83;;
39792;SDS011;26080;42.264;24.536;2022-12-05T02:00:38;6.25;;;3.47;;
39792;SDS011;26080;42.264;24.536;2022-12-05T02:03:06;5.50;;;3.28;;
39792;SDS011;26080;42.264;24.536;2022-12-05T02:05:35;2.17;;;1.98;;
39792;SDS011;26080;42.264;24.536;2022-12-05T02:08:07;4.32;;;2.38;;
39792;SDS011;26080;42.264;24.536;2022-12-05T02:10:38;12.55;;;2.53;;
39792;SDS011;26080;42.264;24.536;2022-12-05T02:13:27;6.18;;;3.60;;
39792;SDS011;26080;42.264;24.536;2022-12-05T02:30:05;2.22;;;2.00;;
39792;SDS011;26080;42.264;24.536;2022-12-05T02:44:03;2.97;;;2.42;;
39792;SDS011;26080;42.264;24.536;2022-12-05T02:46:22;10.80;;;2.17;;
39792;SDS011;26080;42.264;24.536;2022-12-05T02:48:52;5.97;;;2.92;;
39792;SDS011;26080;42.264;24.536;2022-12-05T02:51:21;5.15;;;2.45;;
39792;SDS011;26080;42.264;24.536;2022-12-05T02:53:51;5.55;;;2.70;;
39792;SDS011;26080;42.264;24.536;2022-12-05T02:56:21;2.05;;;1.55;;
39792;SDS011;26080;42.264;24.536;2022-12-05T02:58:48;6.65;;;2.00;;
39792;SDS011;26080;42.264;24.536;2022-12-05T03:01:18;2.15;;;1.98;;
39792;SDS011;26080;42.264;24.536;2022-12-05T03:03:45;4.88;;;2.22;;
39792;SDS011;26080;42.264;24.536;2022-12-05T03:06:17;2.83;;;2.63;;
39792;SDS011;26080;42.264;24.536;2022-12-05T03:08:53;7.40;;;3.03;;
39792;SDS011;26080;42.264;24.536;2022-12-05T03:11:24;6.50;;;2.15;;
39792;SDS011;26080;42.264;24.536;2022-12-05T03:13:57;3.15;;;2.22;;
39792;SDS011;26080;42.264;24.536;2022-12-05T03:16:28;2.28;;;1.70;;
39792;SDS011;26080;42.264;24.536;2022-12-05T03:19:09;13.68;;;4.00;;
39792;SDS011;26080;42.264;24.536;2022-12-05T03:21:41;2.10;;;1.58;;
39792;SDS011;26080;42.264;24.536;2022-12-05T03:24:14;2.17;;;1.75;;
39792;SDS011;26080;42.264;24.536;2022-12-05T03:40:28;2.53;;;1.73;;
39792;SDS011;26080;42.264;24.536;2022-12-05T03:43:42;3.92;;;2.65;;
39792;SDS011;26080;42.264;24.536;2022-12-05T03:46:11;1.15;;;1.08;;
39792;SDS011;26080;42.264;24.536;2022-12-05T03:51:21;1.33;;;1.23;;
39792;SDS011;26080;42.264;24.536;2022-12-05T03:56:26;3.58;;;2.20;;
39792;SDS011;26080;42.264;24.536;2022-12-05T03:59:19;2.75;;;2.05;;
39792;SDS011;26080;42.264;24.536;2022-12-05T04:02:09;7.47;;;3.25;;
39792;SDS011;26080;42.264;24.536;2022-12-05T04:04:53;7.60;;;1.90;;
39792;SDS011;26080;42.264;24.536;2022-12-05T04:07:25;2.17;;;1.55;;
39792;SDS011;26080;42.264;24.536;2022-12-05T04:09:58;3.83;;;2.10;;
39792;SDS011;26080;42.264;24.536;2022-12-05T04:12:27;3.50;;;2.13;;
39792;SDS011;26080;42.264;24.536;2022-12-05T04:14:59;3.65;;;2.10;;
39792;SDS011;26080;42.264;24.536;2022-12-05T04:20:50;7.60;;;3.28;;
39792;SDS011;26080;42.264;24.536;2022-12-05T04:23:21;4.30;;;2.17;;
39792;SDS011;26080;42.264;24.536;2022-12-05T04:26:23;3.25;;;2.03;;
39792;SDS011;26080;42.264;24.536;2022-12-05T04:28:49;5.90;;;3.22;;
39792;SDS011;26080;42.264;24.536;2022-12-05T04:31:25;3.33;;;2.45;;
39792;SDS011;26080;42.264;24.536;2022-12-05T04:34:07;3.30;;;2.10;;
39792;SDS011;26080;42.264;24.536;2022-12-05T04:36:40;1.67;;;1.55;;
39792;SDS011;26080;42.264;24.536;2022-12-05T04:39:43;2.28;;;2.08;;
39792;SDS011;26080;42.264;24.536;2022-12-05T04:42:11;1.98;;;1.85;;
39792;SDS011;26080;42.264;24.536;2022-12-05T04:44:47;2.90;;;2.60;;
39792;SDS011;26080;42.264;24.536;2022-12-05T04:47:17;4.90;;;2.78;;
39792;SDS011;26080;42.264;24.536;2022-12-05T04:49:45;4.80;;;2.63;;
39792;SDS011;26080;42.264;24.536;2022-12-05T04:52:11;15.73;;;3.88;;
39792;SDS011;26080;42.264;24.536;2022-12-05T04:57:14;4.30;;;3.35;;
39792;SDS011;26080;42.264;24.536;2022-12-05T04:59:43;6.82;;;5.03;;
39792;SDS011;26080;42.264;24.536;2022-12-05T05:02:10;5.20;;;2.85;;
39792;SDS011;26080;42.264;24.536;2022-12-05T05:04:48;3.28;;;2.97;;
39792;SDS011;26080;42.264;24.536;2022-12-05T05:07:19;4.35;;;2.47;;
39792;SDS011;26080;42.264;24.536;2022-12-05T05:09:45;3.55;;;2.72;;
39792;SDS011;26080;42.264;24.536;2022-12-05T05:12:10;2.88;;;2.50;;
39792;SDS011;26080;42.264;24.536;2022-12-05T05:14:36;3.15;;;2.45;;
39792;SDS011;26080;42.264;24.536;2022-12-05T05:17:02;5.38;;;2.10;;
39792;SDS011;26080;42.264;24.536;2022-12-05T05:19:33;1.80;;;1.27;;
39792;SDS011;26080;42.264;24.536;2022-12-05T05:21:58;3.50;;;3.00;;
39792;SDS011;26080;42.264;24.536;2022-12-05T05:24:24;5.68;;;3.70;;
39792;SDS011;26080;42.264;24.536;2022-12-05T05:26:50;3.05;;;2.60;;
39792;SDS011;26080;42.264;24.536;2022-12-05T05:29:17;3.03;;;2.22;;
39792;SDS011;26080;42.264;24.536;2022-12-05T05:31:43;5.93;;;2.63;;
39792;SDS011;26080;42.264;24.536;2022-12-05T05:34:09;5.10;;;3.63;;
39792;SDS011;26080;42.264;24.536;2022-12-05T05:36:35;4.78;;;1.95;;
39792;SDS011;26080;42.264;24.536;2022-12-05T05:39:03;4.25;;;3.33;;
39792;SDS011;26080;42.264;24.536;2022-12-05T05:41:30;10.60;;;3.55;;
39792;SDS011;26080;42.264;24.536;2022-12-05T05:43:57;5.32;;;2.03;;
39792;SDS011;26080;42.264;24.536;2022-12-05T05:46:25;3.50;;;2.53;;
39792;SDS011;26080;42.264;24.536;2022-12-05T05:48:52;4.13;;;3.03;;
39792;SDS011;26080;42.264;24.536;2022-12-05T05:51:19;4.78;;;2.75;;
39792;SDS011;26080;42.264;24.536;2022-12-05T05:53:45;6.25;;;3.35;;
39792;SDS011;26080;42.264;24.536;2022-12-05T05:56:12;4.50;;;2.55;;
39792;SDS011;26080;42.264;24.536;2022-12-05T05:58:40;2.38;;;2.17;;
39792;SDS011;26080;42.264;24.536;2022-12-05T06:03:32;3.35;;;3.05;;
39792;SDS011;26080;42.264;24.536;2022-12-05T06:05:58;4.97;;;3.05;;
39792;SDS011;26080;42.264;24.536;2022-12-05T06:08:25;2.50;;;2.20;;
39792;SDS011;26080;42.264;24.536;2022-12-05T06:10:56;7.43;;;4.45;;
39792;SDS011;26080;42.264;24.536;2022-12-05T06:13:22;6.25;;;3.40;;
39792;SDS011;26080;42.264;24.536;2022-12-05T06:15:48;4.88;;;3.35;;
39792;SDS011;26080;42.264;24.536;2022-12-05T06:18:13;3.67;;;3.15;;
39792;SDS011;26080;42.264;24.536;2022-12-05T06:20:39;13.05;;;3.15;;
39792;SDS011;26080;42.264;24.536;2022-12-05T06:23:04;4.70;;;4.05;;
39792;SDS011;26080;42.264;24.536;2022-12-05T06:25:30;7.43;;;4.63;;
39792;SDS011;26080;42.264;24.536;2022-12-05T06:27:58;8.38;;;4.13;;
39792;SDS011;26080;42.264;24.536;2022-12-05T06:30:24;3.25;;;2.83;;
39792;SDS011;26080;42.264;24.536;2022-12-05T06:32:50;7.00;;;3.10;;
39792;SDS011;26080;42.264;24.536;2022-12-05T06:35:15;12.48;;;3.50;;
39792;SDS011;26080;42.264;24.536;2022-12-05T06:37:41;8.38;;;4.28;;
39792;SDS011;26080;42.264;24.536;2022-12-05T06:40:08;3.60;;;2.75;;
39792;SDS011;26080;42.264;24.536;2022-12-05T06:42:34;3.95;;;2.80;;
39792;SDS011;26080;42.264;24.536;2022-12-05T06:45:00;3.45;;;3.03;;
39792;SDS011;26080;42.264;24.536;2022-12-05T06:47:28;10.15;;;5.55;;
39792;SDS011;26080;42.264;24.536;2022-12-05T06:49:53;13.52;;;6.57;;
39792;SDS011;26080;42.264;24.536;2022-12-05T06:52:19;5.07;;;2.13;;
39792;SDS011;26080;42.264;24.536;2022-12-05T06:54:44;9.45;;;3.60;;
39792;SDS011;26080;42.264;24.536;2022-12-05T06:57:10;7.68;;;4.45;;
39792;SDS011;26080;42.264;24.536;2022-12-05T06:59:36;5.35;;;4.00;;
39792;SDS011;26080;42.264;24.536;2022-12-05T07:02:02;3.08;;;2.30;;
39792;SDS011;26080;42.264;24.536;2022-12-05T07:04:27;16.80;;;3.83;;
39792;SDS011;26080;42.264;24.536;2022-12-05T07:06:53;2.45;;;2.25;;
39792;SDS011;26080;42.264;24.536;2022-12-05T07:09:21;3.72;;;2.70;;
39792;SDS011;26080;42.264;24.536;2022-12-05T07:12:08;5.53;;;3.22;;
39792;SDS011;26080;42.264;24.536;2022-12-05T07:14:33;3.38;;;2.60;;
39792;SDS011;26080;42.264;24.536;2022-12-05T07:16:59;4.05;;;2.85;;
39792;SDS011;26080;42.264;24.536;2022-12-05T07:19:24;3.42;;;2.35;;
39792;SDS011;26080;42.264;24.536;2022-12-05T07:21:50;2.22;;;1.40;;
39792;SDS011;26080;42.264;24.536;2022-12-05T07:24:15;4.18;;;3.42;;
39792;SDS011;26080;42.264;24.536;2022-12-05T07:26:40;8.35;;;3.88;;
39792;SDS011;26080;42.264;24.536;2022-12-05T07:29:06;4.97;;;1.70;;
39792;SDS011;26080;42.264;24.536;2022-12-05T07:31:31;3.33;;;2.67;;
39792;SDS011;26080;42.264;24.536;2022-12-05T07:33:58;3.03;;;2.28;;
39792;SDS011;26080;42.264;24.536;2022-12-05T07:36:23;2.45;;;1.90;;
39792;SDS011;26080;42.264;24.536;2022-12-05T07:38:53;3.72;;;3.30;;
39792;SDS011;26080;42.264;24.536;2022-12-05T07:41:24;4.75;;;3.50;;
39792;SDS011;26080;42.264;24.536;2022-12-05T07:43:51;3.70;;;2.75;;
39792;SDS011;26080;42.264;24.536;2022-12-05T07:46:18;18.05;;;3.70;;
39792;SDS011;26080;42.264;24.536;2022-12-05T07:48:44;18.58;;;8.80;;
39792;SDS011;26080;42.264;24.536;2022-12-05T07:51:15;9.40;;;4.03;;
39792;SDS011;26080;42.264;24.536;2022-12-05T07:53:45;19.10;;;8.13;;
39792;SDS011;26080;42.264;24.536;2022-12-05T08:12:56;2.85;;;2.20;;
39792;SDS011;26080;42.264;24.536;2022-12-05T08:15:22;4.63;;;2.75;;
39792;SDS011;26080;42.264;24.536;2022-12-05T08:17:47;2.55;;;2.15;;
39792;SDS011;26080;42.264;24.536;2022-12-05T08:20:13;4.47;;;2.63;;
39792;SDS011;26080;42.264;24.536;2022-12-05T08:22:38;4.75;;;2.53;;
39792;SDS011;26080;42.264;24.536;2022-12-05T08:25:04;2.67;;;1.73;;
39792;SDS011;26080;42.264;24.536;2022-12-05T08:27:29;5.68;;;2.72;;
39792;SDS011;26080;42.264;24.536;2022-12-05T08:29:55;7.00;;;2.42;;
39792;SDS011;26080;42.264;24.536;2022-12-05T08:32:20;2.60;;;1.60;;
39792;SDS011;26080;42.264;24.536;2022-12-05T08:34:46;3.33;;;1.95;;
39792;SDS011;26080;42.264;24.536;2022-12-05T08:37:11;3.95;;;2.67;;
39792;SDS011;26080;42.264;24.536;2022-12-05T08:39:37;6.50;;;2.55;;
39792;SDS011;26080;42.264;24.536;2022-12-05T08:42:02;3.63;;;1.90;;
39792;SDS011;26080;42.264;24.536;2022-12-05T08:44:27;2.95;;;2.45;;
39792;SDS011;26080;42.264;24.536;2022-12-05T08:46:53;32.63;;;2.55;;
39792;SDS011;26080;42.264;24.536;2022-12-05T08:49:18;4.43;;;2.40;;
39792;SDS011;26080;42.264;24.536;2022-12-05T08:51:44;6.70;;;2.85;;
39792;SDS011;26080;42.264;24.536;2022-12-05T08:54:09;2.50;;;2.13;;
39792;SDS011;26080;42.264;24.536;2022-12-05T08:56:35;1.60;;;1.42;;
39792;SDS011;26080;42.264;24.536;2022-12-05T08:59:02;7.18;;;3.22;;
39792;SDS011;26080;42.264;24.536;2022-12-05T09:01:28;3.28;;;2.42;;
39792;SDS011;26080;42.264;24.536;2022-12-05T09:03:56;1.30;;;1.10;;
39792;SDS011;26080;42.264;24.536;2022-12-05T09:06:25;1.33;;;1.25;;
39792;SDS011;26080;42.264;24.536;2022-12-05T09:08:53;3.65;;;2.55;;
39792;SDS011;26080;42.264;24.536;2022-12-05T09:11:21;4.85;;;2.80;;
39792;SDS011;26080;42.264;24.536;2022-12-05T09:13:49;7.70;;;4.25;;
39792;SDS011;26080;42.264;24.536;2022-12-05T09:16:16;4.93;;;2.25;;
39792;SDS011;26080;42.264;24.536;2022-12-05T09:18:44;17.20;;;7.78;;
39792;SDS011;26080;42.264;24.536;2022-12-05T09:21:14;8.55;;;2.40;;
39792;SDS011;26080;42.264;24.536;2022-12-05T09:23:41;4.53;;;2.08;;
39792;SDS011;26080;42.264;24.536;2022-12-05T09:26:08;2.90;;;2.40;;
39792;SDS011;26080;42.264;24.536;2022-12-05T09:28:35;3.40;;;1.92;;
39792;SDS011;26080;42.264;24.536;2022-12-05T09:31:02;64.63;;;30.73;;
39792;SDS011;26080;42.264;24.536;2022-12-05T09:33:31;7.35;;;4.25;;
39792;SDS011;26080;42.264;24.536;2022-12-05T09:36:00;5.00;;;2.47;;
39792;SDS011;26080;42.264;24.536;2022-12-05T09:38:27;1.52;;;1.38;;
39792;SDS011;26080;42.264;24.536;2022-12-05T09:41:01;4.05;;;1.85;;
39792;SDS011;26080;42.264;24.536;2022-12-05T09:48:48;2.17;;;1.42;;
39792;SDS011;26080;42.264;24.536;2022-12-05T09:51:15;1.73;;;1.23;;
39792;SDS011;26080;42.264;24.536;2022-12-05T09:53:41;3.95;;;2.75;;
39792;SDS011;26080;42.264;24.536;2022-12-05T10:07:35;7.03;;;2.08;;
39792;SDS011;26080;42.264;24.536;2022-12-05T10:10:28;2.42;;;1.85;;
39792;SDS011;26080;42.264;24.536;2022-12-05T10:15:41;7.90;;;4.05;;
39792;SDS011;26080;42.264;24.536;2022-12-05T10:23:21;25.42;;;8.93;;
39792;SDS011;26080;42.264;24.536;2022-12-05T10:25:54;102.20;;;41.08;;
39792;SDS011;26080;42.264;24.536;2022-12-05T10:31:29;15.75;;;7.47;;
39792;SDS011;26080;42.264;24.536;2022-12-05T10:34:04;2.88;;;2.58;;
39792;SDS011;26080;42.264;24.536;2022-12-05T10:36:37;11.48;;;5.18;;
39792;SDS011;26080;42.264;24.536;2022-12-05T10:39:02;6.65;;;3.88;;
39792;SDS011;26080;42.264;24.536;2022-12-05T10:41:28;3.33;;;2.42;;
39792;SDS011;26080;42.264;24.536;2022-12-05T10:43:53;10.15;;;6.57;;
39792;SDS011;26080;42.264;24.536;2022-12-05T10:46:22;31.45;;;10.35;;
39792;SDS011;26080;42.264;24.536;2022-12-05T10:48:48;2.78;;;1.75;;
39792;SDS011;26080;42.264;24.536;2022-12-05T10:51:15;1.20;;;1.00;;
39792;SDS011;26080;42.264;24.536;2022-12-05T10:53:44;4.75;;;4.07;;
39792;SDS011;26080;42.264;24.536;2022-12-05T10:59:12;16.80;;;10.98;;
39792;SDS011;26080;42.264;24.536;2022-12-05T11:02:15;31.58;;;12.82;;
39792;SDS011;26080;42.264;24.536;2022-12-05T11:04:43;3.08;;;1.40;;
39792;SDS011;26080;42.264;24.536;2022-12-05T11:07:21;5.00;;;2.25;;
39792;SDS011;26080;42.264;24.536;2022-12-05T11:09:50;1.20;;;1.10;;
39792;SDS011;26080;42.264;24.536;2022-12-05T11:12:21;2.60;;;2.10;;
39792;SDS011;26080;42.264;24.536;2022-12-05T11:15:04;7.53;;;1.95;;
39792;SDS011;26080;42.264;24.536;2022-12-05T11:17:43;1.88;;;1.45;;
39792;SDS011;26080;42.264;24.536;2022-12-05T11:22:38;4.57;;;2.88;;
39792;SDS011;26080;42.264;24.536;2022-12-05T11:25:23;4.45;;;2.65;;
39792;SDS011;26080;42.264;24.536;2022-12-05T11:27:52;4.70;;;3.63;;
39792;SDS011;26080;42.264;24.536;2022-12-05T11:30:22;2.30;;;1.85;;
39792;SDS011;26080;42.264;24.536;2022-12-05T11:33:09;6.95;;;2.80;;
39792;SDS011;26080;42.264;24.536;2022-12-05T11:35:55;3.13;;;2.30;;
39792;SDS011;26080;42.264;24.536;2022-12-05T11:38:27;1.98;;;1.42;;
39792;SDS011;26080;42.264;24.536;2022-12-05T11:51:35;4.38;;;3.70;;
39792;SDS011;26080;42.264;24.536;2022-12-05T11:54:06;7.28;;;2.92;;
39792;SDS011;26080;42.264;24.536;2022-12-05T11:56:49;4.93;;;3.78;;
39792;SDS011;26080;42.264;24.536;2022-12-05T12:08:50;6.57;;;2.63;;
39792;SDS011;26080;42.264;24.536;2022-12-05T12:35:29;12.90;;;7.28;;
39792;SDS011;26080;42.264;24.536;2022-12-05T12:40:53;3.83;;;2.47;;
39792;SDS011;26080;42.264;24.536;2022-12-05T12:49:14;14.07;;;4.68;;
39792;SDS011;26080;42.264;24.536;2022-12-05T12:52:03;32.25;;;15.52;;
39792;SDS011;26080;42.264;24.536;2022-12-05T12:57:16;11.00;;;3.25;;
39792;SDS011;26080;42.264;24.536;2022-12-05T13:03:48;4.03;;;3.53;;
39792;SDS011;26080;42.264;24.536;2022-12-05T13:06:17;3.30;;;1.88;;
39792;SDS011;26080;42.264;24.536;2022-12-05T13:11:23;4.32;;;2.55;;
39792;SDS011;26080;42.264;24.536;2022-12-05T13:13:53;18.23;;;9.23;;
39792;SDS011;26080;42.264;24.536;2022-12-05T13:16:30;51.05;;;22.65;;
39792;SDS011;26080;42.264;24.536;2022-12-05T13:19:00;33.53;;;15.43;;
39792;SDS011;26080;42.264;24.536;2022-12-05T13:21:30;27.48;;;13.35;;
39792;SDS011;26080;42.264;24.536;2022-12-05T13:23:56;5.30;;;3.25;;
39792;SDS011;26080;42.264;24.536;2022-12-05T13:26:28;36.10;;;18.45;;
39792;SDS011;26080;42.264;24.536;2022-12-05T13:28:56;15.68;;;5.25;;
39792;SDS011;26080;42.264;24.536;2022-12-05T13:36:58;4.18;;;2.85;;
39792;SDS011;26080;42.264;24.536;2022-12-05T13:39:53;2.58;;;2.35;;
39792;SDS011;26080;42.264;24.536;2022-12-05T13:42:39;6.22;;;2.70;;
39792;SDS011;26080;42.264;24.536;2022-12-05T13:45:07;6.30;;;4.00;;
39792;SDS011;26080;42.264;24.536;2022-12-05T13:53:03;3.67;;;2.92;;
39792;SDS011;26080;42.264;24.536;2022-12-05T13:55:54;7.03;;;4.20;;
39792;SDS011;26080;42.264;24.536;2022-12-05T14:09:03;13.25;;;4.63;;
39792;SDS011;26080;42.264;24.536;2022-12-05T14:12:06;10.48;;;5.45;;
39792;SDS011;26080;42.264;24.536;2022-12-05T14:17:20;4.95;;;3.88;;
39792;SDS011;26080;42.264;24.536;2022-12-05T14:19:59;7.53;;;4.63;;
39792;SDS011;26080;42.264;24.536;2022-12-05T14:22:50;4.18;;;3.58;;
39792;SDS011;26080;42.264;24.536;2022-12-05T14:28:46;10.70;;;2.80;;
39792;SDS011;26080;42.264;24.536;2022-12-05T14:36:50;7.88;;;4.78;;
39792;SDS011;26080;42.264;24.536;2022-12-05T14:39:19;15.18;;;7.25;;
39792;SDS011;26080;42.264;24.536;2022-12-05T14:41:46;7.90;;;4.82;;
39792;SDS011;26080;42.264;24.536;2022-12-05T14:44:21;8.68;;;5.32;;
39792;SDS011;26080;42.264;24.536;2022-12-05T14:46:47;11.02;;;6.07;;
39792;SDS011;26080;42.264;24.536;2022-12-05T14:51:58;11.65;;;5.72;;
39792;SDS011;26080;42.264;24.536;2022-12-05T14:54:36;7.15;;;5.30;;
39792;SDS011;26080;42.264;24.536;2022-12-05T14:57:07;9.88;;;4.55;;
39792;SDS011;26080;42.264;24.536;2022-12-05T15:02:23;17.83;;;4.03;;
39792;SDS011;26080;42.264;24.536;2022-12-05T15:07:44;10.40;;;3.97;;
39792;SDS011;26080;42.264;24.536;2022-12-05T15:10:21;5.03;;;4.55;;
39792;SDS011;26080;42.264;24.536;2022-12-05T15:12:59;6.00;;;4.07;;
39792;SDS011;26080;42.264;24.536;2022-12-05T15:21:03;8.43;;;4.07;;
39792;SDS011;26080;42.264;24.536;2022-12-05T15:23:43;6.90;;;3.17;;
39792;SDS011;26080;42.264;24.536;2022-12-05T15:26:15;3.10;;;2.22;;
39792;SDS011;26080;42.264;24.536;2022-12-05T15:31:49;16.27;;;9.48;;
39792;SDS011;26080;42.264;24.536;2022-12-05T15:36:49;8.55;;;5.55;;
39792;SDS011;26080;42.264;24.536;2022-12-05T15:42:22;8.18;;;4.15;;
39792;SDS011;26080;42.264;24.536;2022-12-05T15:44:49;14.27;;;5.15;;
39792;SDS011;26080;42.264;24.536;2022-12-05T15:47:19;7.68;;;4.22;;
39792;SDS011;26080;42.264;24.536;2022-12-05T15:49:49;12.90;;;6.03;;
39792;SDS011;26080;42.264;24.536;2022-12-05T15:52:20;7.93;;;7.00;;
39792;SDS011;26080;42.264;24.536;2022-12-05T15:55:13;7.32;;;3.53;;
39792;SDS011;26080;42.264;24.536;2022-12-05T16:00:21;12.05;;;5.72;;
39792;SDS011;26080;42.264;24.536;2022-12-05T16:03:03;4.70;;;3.55;;
39792;SDS011;26080;42.264;24.536;2022-12-05T16:05:46;11.70;;;7.15;;
39792;SDS011;26080;42.264;24.536;2022-12-05T16:08:16;7.68;;;4.78;;
39792;SDS011;26080;42.264;24.536;2022-12-05T16:10:42;3.00;;;2.47;;
39792;SDS011;26080;42.264;24.536;2022-12-05T16:13:11;6.63;;;5.38;;
39792;SDS011;26080;42.264;24.536;2022-12-05T16:15:41;10.82;;;4.80;;
39792;SDS011;26080;42.264;24.536;2022-12-05T16:18:23;15.85;;;4.40;;
39792;SDS011;26080;42.264;24.536;2022-12-05T16:20:58;8.77;;;4.05;;
39792;SDS011;26080;42.264;24.536;2022-12-05T16:26:08;15.15;;;4.72;;
39792;SDS011;26080;42.264;24.536;2022-12-05T16:28:42;12.82;;;5.13;;
39792;SDS011;26080;42.264;24.536;2022-12-05T16:31:21;16.38;;;4.90;;
39792;SDS011;26080;42.264;24.536;2022-12-05T16:33:47;14.98;;;7.43;;
39792;SDS011;26080;42.264;24.536;2022-12-05T16:36:12;20.02;;;9.63;;
39792;SDS011;26080;42.264;24.536;2022-12-05T16:38:38;18.13;;;8.35;;
39792;SDS011;26080;42.264;24.536;2022-12-05T16:41:07;17.45;;;8.52;;
39792;SDS011;26080;42.264;24.536;2022-12-05T16:48:39;7.40;;;4.78;;
39792;SDS011;26080;42.264;24.536;2022-12-05T16:51:18;7.13;;;5.97;;
39792;SDS011;26080;42.264;24.536;2022-12-05T16:53:49;22.17;;;8.43;;
39792;SDS011;26080;42.264;24.536;2022-12-05T16:56:20;10.57;;;7.65;;
39792;SDS011;26080;42.264;24.536;2022-12-05T16:58:48;7.18;;;6.47;;
39792;SDS011;26080;42.264;24.536;2022-12-05T17:01:17;7.30;;;6.32;;
39792;SDS011;26080;42.264;24.536;2022-12-05T17:03:45;9.63;;;5.90;;
39792;SDS011;26080;42.264;24.536;2022-12-05T17:06:10;14.15;;;9.25;;
39792;SDS011;26080;42.264;24.536;2022-12-05T17:08:36;16.77;;;7.38;;
39792;SDS011;26080;42.264;24.536;2022-12-05T17:11:05;10.63;;;6.80;;
39792;SDS011;26080;42.264;24.536;2022-12-05T17:13:38;10.10;;;8.02;;
39792;SDS011;26080;42.264;24.536;2022-12-05T17:16:04;24.92;;;9.15;;
39792;SDS011;26080;42.264;24.536;2022-12-05T17:18:29;18.13;;;6.72;;
39792;SDS011;26080;42.264;24.536;2022-12-05T17:20:54;19.55;;;9.60;;
39792;SDS011;26080;42.264;24.536;2022-12-05T17:23:21;12.10;;;5.55;;
39792;SDS011;26080;42.264;24.536;2022-12-05T17:25:51;12.65;;;4.93;;
39792;SDS011;26080;42.264;24.536;2022-12-05T17:28:17;14.05;;;7.50;;
39792;SDS011;26080;42.264;24.536;2022-12-05T17:30:43;21.85;;;8.80;;
39792;SDS011;26080;42.264;24.536;2022-12-05T17:33:09;21.48;;;10.05;;
39792;SDS011;26080;42.264;24.536;2022-12-05T17:35:36;14.82;;;8.55;;
39792;SDS011;26080;42.264;24.536;2022-12-05T17:38:06;18.02;;;12.63;;
39792;SDS011;26080;42.264;24.536;2022-12-05T17:40:35;26.27;;;12.00;;
39792;SDS011;26080;42.264;24.536;2022-12-05T17:43:04;35.28;;;13.02;;
39792;SDS011;26080;42.264;24.536;2022-12-05T17:45:30;12.05;;;9.27;;
39792;SDS011;26080;42.264;24.536;2022-12-05T17:47:56;19.17;;;9.70;;
39792;SDS011;26080;42.264;24.536;2022-12-05T17:50:22;12.68;;;9.70;;
39792;SDS011;26080;42.264;24.536;2022-12-05T17:52:49;128.15;;;69.28;;
39792;SDS011;26080;42.264;24.536;2022-12-05T17:55:23;99.85;;;43.97;;
39792;SDS011;26080;42.264;24.536;2022-12-05T17:57:52;172.23;;;89.15;;
39792;SDS011;26080;42.264;24.536;2022-12-05T18:00:19;69.90;;;32.72;;
39792;SDS011;26080;42.264;24.536;2022-12-05T18:02:46;30.20;;;9.88;;
39792;SDS011;26080;42.264;24.536;2022-12-05T18:05:12;5.97;;;4.60;;
39792;SDS011;26080;42.264;24.536;2022-12-05T18:07:39;8.82;;;4.88;;
39792;SDS011;26080;42.264;24.536;2022-12-05T18:10:06;21.73;;;10.77;;
39792;SDS011;26080;42.264;24.536;2022-12-05T18:12:34;126.00;;;50.08;;
39792;SDS011;26080;42.264;24.536;2022-12-05T18:14:59;181.73;;;64.13;;
39792;SDS011;26080;42.264;24.536;2022-12-05T18:17:25;38.53;;;15.15;;
39792;SDS011;26080;42.264;24.536;2022-12-05T18:19:51;22.55;;;8.30;;
39792;SDS011;26080;42.264;24.536;2022-12-05T18:22:19;23.80;;;8.43;;
39792;SDS011;26080;42.264;24.536;2022-12-05T18:24:49;16.08;;;6.93;;
39792;SDS011;26080;42.264;24.536;2022-12-05T18:27:14;13.73;;;6.13;;
39792;SDS011;26080;42.264;24.536;2022-12-05T18:29:40;143.02;;;67.78;;
39792;SDS011;26080;42.264;24.536;2022-12-05T18:32:05;168.85;;;77.60;;
39792;SDS011;26080;42.264;24.536;2022-12-05T18:34:31;174.93;;;84.90;;
39792;SDS011;26080;42.264;24.536;2022-12-05T18:36:56;125.80;;;70.25;;